Time;durP1;ratioP1;P1;durP2;ratioP2;P2;SDS_P1;SDS_P2;PMS_P1;PMS_P2;Temp;Humidity;BMP_temperature;BMP_pressure;BME280_temperature;BME280_humidity;BME280_pressure;Samples;Min_cycle;Max_cycle;Signal;HPM_P1;HPM_P2
2023/12/23 00:01:24;;;;;;;7.75;1.70;;;;;;;;;;5016330;28;20272;-83
2023/12/23 00:03:50;;;;;;;3.67;1.55;;;;;;;;;;5017211;28;20655;-81
2023/12/23 00:06:17;;;;;;;2.65;1.25;;;;;;;;;;5017115;28;20187;-82
2023/12/23 00:08:43;;;;;;;4.03;1.20;;;;;;;;;;5016773;28;20217;-82
2023/12/23 00:11:08;;;;;;;10.10;1.70;;;;;;;;;;5016886;28;20175;-82
2023/12/23 00:13:34;;;;;;;3.00;0.77;;;;;;;;;;5015973;28;20406;-82
2023/12/23 00:16:00;;;;;;;4.10;1.03;;;;;;;;;;5016393;28;20410;-82
2023/12/23 00:18:26;;;;;;;2.63;0.93;;;;;;;;;;5016788;28;20448;-82
2023/12/23 00:20:52;;;;;;;1.50;0.97;;;;;;;;;;5016053;28;20823;-82
2023/12/23 00:23:18;;;;;;;4.83;1.70;;;;;;;;;;5016900;28;20405;-81
2023/12/23 00:25:44;;;;;;;5.53;1.20;;;;;;;;;;5017211;28;20419;-82
2023/12/23 00:28:10;;;;;;;2.78;0.93;;;;;;;;;;5017476;28;20424;-82
2023/12/23 00:30:36;;;;;;;0.97;0.73;;;;;;;;;;5016573;28;20186;-83
2023/12/23 00:33:05;;;;;;;4.40;1.07;;;;;;;;;;5016643;28;20413;-83
2023/12/23 00:35:30;;;;;;;2.17;1.23;;;;;;;;;;5031858;28;20815;-83
2023/12/23 00:37:56;;;;;;;3.13;0.90;;;;;;;;;;5016739;28;20262;-82
2023/12/23 00:40:22;;;;;;;5.03;1.25;;;;;;;;;;5031513;28;20759;-82
2023/12/23 00:42:48;;;;;;;3.63;0.80;;;;;;;;;;5017717;28;20179;-82
2023/12/23 00:45:14;;;;;;;6.07;0.97;;;;;;;;;;5019904;28;20410;-82
2023/12/23 00:47:40;;;;;;;2.53;1.40;;;;;;;;;;5020866;28;20473;-82
2023/12/23 00:50:07;;;;;;;1.63;0.80;;;;;;;;;;5020144;28;20622;-82
2023/12/23 00:52:33;;;;;;;2.58;0.90;;;;;;;;;;5020895;28;20497;-82
2023/12/23 00:54:59;;;;;;;3.20;1.10;;;;;;;;;;5020580;28;20223;-82
2023/12/23 00:57:25;;;;;;;7.93;1.23;;;;;;;;;;5020327;28;20414;-85
2023/12/23 00:59:51;;;;;;;5.10;1.55;;;;;;;;;;5020499;28;20468;-82
2023/12/23 01:02:17;;;;;;;2.13;0.85;;;;;;;;;;5020395;28;20298;-82
2023/12/23 01:04:43;;;;;;;4.70;1.20;;;;;;;;;;5020412;28;20206;-82
2023/12/23 01:07:10;;;;;;;4.05;1.17;;;;;;;;;;5020596;28;20409;-83
2023/12/23 01:09:36;;;;;;;6.70;1.10;;;;;;;;;;5020478;28;20171;-82
2023/12/23 01:12:02;;;;;;;8.63;1.00;;;;;;;;;;5020219;28;20187;-82
2023/12/23 01:14:28;;;;;;;1.93;1.23;;;;;;;;;;5020288;28;20405;-83
2023/12/23 01:16:54;;;;;;;4.47;1.47;;;;;;;;;;5019068;28;20406;-82
2023/12/23 01:19:20;;;;;;;6.50;1.53;;;;;;;;;;5020328;28;20436;-81
2023/12/23 01:21:45;;;;;;;7.80;2.00;;;;;;;;;;5019198;28;20477;-82
2023/12/23 01:24:11;;;;;;;4.40;1.30;;;;;;;;;;5020285;28;20509;-82
2023/12/23 01:26:37;;;;;;;3.90;1.13;;;;;;;;;;5019588;28;20914;-82
2023/12/23 01:29:03;;;;;;;4.30;0.80;;;;;;;;;;5019744;28;20433;-82
2023/12/23 01:31:29;;;;;;;3.83;0.80;;;;;;;;;;5020030;28;20403;-82
2023/12/23 01:33:55;;;;;;;5.07;1.08;;;;;;;;;;5019503;28;20406;-82
2023/12/23 01:36:21;;;;;;;6.35;1.30;;;;;;;;;;5020221;28;20214;-82
2023/12/23 01:38:47;;;;;;;3.47;1.30;;;;;;;;;;5019348;28;20190;-83
2023/12/23 01:41:13;;;;;;;3.93;1.77;;;;;;;;;;5019338;28;20462;-82
2023/12/23 01:43:39;;;;;;;3.08;1.60;;;;;;;;;;5019613;28;20411;-83
2023/12/23 01:46:06;;;;;;;1.70;1.10;;;;;;;;;;5019603;28;20611;-82
2023/12/23 01:48:36;;;;;;;4.93;1.42;;;;;;;;;;5018980;28;20435;-83
2023/12/23 01:51:03;;;;;;;4.93;1.85;;;;;;;;;;5019869;28;20237;-82
2023/12/23 01:53:30;;;;;;;6.70;2.00;;;;;;;;;;5018049;28;20218;-83
2023/12/23 01:55:55;;;;;;;3.70;1.77;;;;;;;;;;5019244;28;20198;-82
2023/12/23 01:58:22;;;;;;;8.13;2.03;;;;;;;;;;5019156;28;20632;-83
2023/12/23 02:00:48;;;;;;;3.65;1.50;;;;;;;;;;5019119;28;20841;-82
2023/12/23 02:03:14;;;;;;;5.65;1.80;;;;;;;;;;5018928;28;20183;-82
2023/12/23 02:05:40;;;;;;;4.95;2.28;;;;;;;;;;5018917;28;20175;-83
2023/12/23 02:08:06;;;;;;;10.67;2.90;;;;;;;;;;5018995;28;20185;-82
2023/12/23 02:10:33;;;;;;;4.70;2.00;;;;;;;;;;5019483;28;20408;-82
2023/12/23 02:12:59;;;;;;;7.07;2.38;;;;;;;;;;5018872;28;20180;-82
2023/12/23 02:15:25;;;;;;;4.20;2.20;;;;;;;;;;5018189;28;20177;-83
2023/12/23 02:18:01;;;;;;;7.57;3.17;;;;;;;;;;5018385;28;20185;-83
2023/12/23 02:20:27;;;;;;;6.47;2.22;;;;;;;;;;5018468;28;20266;-83
2023/12/23 02:22:53;;;;;;;5.43;2.83;;;;;;;;;;5018253;28;20175;-83
2023/12/23 02:25:20;;;;;;;5.20;2.40;;;;;;;;;;5018795;28;20205;-82
2023/12/23 02:27:57;;;;;;;8.23;2.30;;;;;;;;;;5018431;28;20464;-82
2023/12/23 02:30:24;;;;;;;6.07;2.00;;;;;;;;;;5018311;28;20642;-82
2023/12/23 02:32:50;;;;;;;4.82;2.38;;;;;;;;;;5017848;28;20192;-82
2023/12/23 02:35:16;;;;;;;10.65;3.53;;;;;;;;;;5018440;28;20228;-82
2023/12/23 02:37:42;;;;;;;11.15;3.25;;;;;;;;;;5018212;28;20213;-82
2023/12/23 02:40:08;;;;;;;8.03;2.70;;;;;;;;;;5018631;28;20228;-82
2023/12/23 02:42:34;;;;;;;6.60;3.13;;;;;;;;;;5018266;28;20412;-83
2023/12/23 02:45:00;;;;;;;11.97;3.47;;;;;;;;;;5033178;28;20273;-82
2023/12/23 02:47:26;;;;;;;11.35;3.15;;;;;;;;;;5017931;28;20918;-82
2023/12/23 02:49:52;;;;;;;8.52;4.85;;;;;;;;;;5018093;28;20231;-82
2023/12/23 02:52:18;;;;;;;16.37;6.23;;;;;;;;;;5018437;28;20187;-82
2023/12/23 02:54:44;;;;;;;7.73;5.00;;;;;;;;;;5032992;28;20433;-82
2023/12/23 02:57:10;;;;;;;8.93;6.40;;;;;;;;;;5018047;28;20406;-82
2023/12/23 02:59:36;;;;;;;9.97;6.63;;;;;;;;;;5017283;28;20183;-82
2023/12/23 03:02:02;;;;;;;10.17;6.90;;;;;;;;;;5017471;28;20532;-82
2023/12/23 03:04:29;;;;;;;20.33;7.37;;;;;;;;;;5017552;28;20406;-82
2023/12/23 03:06:55;;;;;;;13.27;7.43;;;;;;;;;;5016712;28;20401;-82
2023/12/23 03:09:20;;;;;;;12.17;6.57;;;;;;;;;;5017619;28;20170;-82
2023/12/23 03:11:47;;;;;;;12.90;7.87;;;;;;;;;;5016456;28;20427;-82
2023/12/23 03:14:13;;;;;;;8.65;6.50;;;;;;;;;;5016980;28;20410;-82
2023/12/23 03:16:39;;;;;;;18.42;7.40;;;;;;;;;;5033128;28;20179;-83
2023/12/23 03:19:05;;;;;;;24.93;8.37;;;;;;;;;;5017681;28;20292;-82
2023/12/23 03:21:32;;;;;;;13.75;7.32;;;;;;;;;;5017750;28;20544;-81
2023/12/23 03:23:58;;;;;;;12.75;7.85;;;;;;;;;;5024372;28;20171;-81
2023/12/23 03:26:24;;;;;;;16.30;6.63;;;;;;;;;;5019012;28;20186;-81
2023/12/23 03:28:50;;;;;;;12.63;6.72;;;;;;;;;;5017447;28;20405;-81
2023/12/23 03:31:16;;;;;;;11.60;6.90;;;;;;;;;;5017224;28;20189;-82
2023/12/23 03:33:42;;;;;;;9.50;6.70;;;;;;;;;;5016880;28;20448;-82
2023/12/23 03:36:08;;;;;;;18.27;8.00;;;;;;;;;;5016925;28;20555;-83
2023/12/23 03:38:34;;;;;;;10.52;7.45;;;;;;;;;;5016730;28;20433;-86
2023/12/23 03:41:00;;;;;;;11.60;8.00;;;;;;;;;;5016978;28;20229;-83
2023/12/23 03:43:26;;;;;;;15.25;7.80;;;;;;;;;;5017041;28;20405;-82
2023/12/23 03:45:52;;;;;;;14.47;6.57;;;;;;;;;;5016387;28;20206;-82
2023/12/23 03:48:18;;;;;;;15.40;8.38;;;;;;;;;;5016481;28;20408;-82
2023/12/23 03:50:44;;;;;;;11.45;6.45;;;;;;;;;;5017033;28;20313;-82
2023/12/23 03:53:10;;;;;;;12.60;6.05;;;;;;;;;;5031905;28;20579;-82
2023/12/23 03:55:38;;;;;;;12.20;7.53;;;;;;;;;;5016451;28;20191;-82
2023/12/23 03:58:04;;;;;;;11.75;7.13;;;;;;;;;;5017070;28;20432;-82
2023/12/23 04:00:30;;;;;;;13.90;8.38;;;;;;;;;;5016217;28;20190;-82
2023/12/23 04:02:57;;;;;;;13.50;7.60;;;;;;;;;;5016388;28;20182;-82
2023/12/23 04:05:23;;;;;;;12.57;5.65;;;;;;;;;;5016466;28;20178;-82
2023/12/23 04:07:50;;;;;;;13.73;6.83;;;;;;;;;;5016419;28;20673;-81
2023/12/23 04:10:16;;;;;;;12.13;6.82;;;;;;;;;;5016777;28;20401;-82
2023/12/23 04:12:42;;;;;;;12.20;6.13;;;;;;;;;;5016419;28;20209;-83
2023/12/23 04:15:08;;;;;;;22.27;7.60;;;;;;;;;;5016536;28;20178;-82
2023/12/23 04:17:35;;;;;;;14.18;6.25;;;;;;;;;;5032234;28;20440;-81
2023/12/23 04:20:01;;;;;;;13.20;6.50;;;;;;;;;;5017696;28;20261;-81
2023/12/23 04:22:27;;;;;;;13.55;5.70;;;;;;;;;;5017258;28;20241;-81
2023/12/23 04:24:53;;;;;;;10.77;4.53;;;;;;;;;;5017400;28;20178;-82
2023/12/23 04:27:19;;;;;;;9.35;5.88;;;;;;;;;;5017287;28;20402;-82
2023/12/23 04:29:45;;;;;;;9.88;4.80;;;;;;;;;;5017226;28;20609;-82
2023/12/23 04:32:11;;;;;;;11.95;4.57;;;;;;;;;;5017848;28;20182;-82
2023/12/23 04:34:37;;;;;;;13.05;3.95;;;;;;;;;;5032532;28;20170;-87
2023/12/23 04:37:03;;;;;;;13.45;3.92;;;;;;;;;;5017503;28;20619;-82
2023/12/23 04:39:30;;;;;;;11.90;5.18;;;;;;;;;;5017518;28;20549;-82
2023/12/23 04:41:56;;;;;;;5.32;3.47;;;;;;;;;;5017475;28;20237;-82
2023/12/23 04:44:22;;;;;;;11.85;4.30;;;;;;;;;;5032325;28;20545;-82
2023/12/23 04:46:48;;;;;;;12.02;4.03;;;;;;;;;;5017203;28;20175;-82
2023/12/23 04:49:15;;;;;;;7.53;3.83;;;;;;;;;;5016441;28;20276;-82
2023/12/23 04:51:43;;;;;;;15.25;3.58;;;;;;;;;;5017511;28;20202;-83
2023/12/23 04:54:10;;;;;;;4.95;2.22;;;;;;;;;;5017532;28;20198;-82
2023/12/23 04:56:36;;;;;;;4.63;2.47;;;;;;;;;;5017789;28;20191;-82
2023/12/23 04:59:02;;;;;;;13.93;2.67;;;;;;;;;;5017249;28;20202;-82
2023/12/23 05:01:28;;;;;;;7.32;3.17;;;;;;;;;;5016959;28;20222;-83
2023/12/23 05:03:54;;;;;;;12.75;3.50;;;;;;;;;;5017150;28;20172;-82
2023/12/23 05:06:20;;;;;;;5.00;2.47;;;;;;;;;;5017595;28;20174;-82
2023/12/23 05:08:46;;;;;;;13.07;3.25;;;;;;;;;;5016563;28;20210;-83
2023/12/23 05:11:12;;;;;;;12.45;3.10;;;;;;;;;;5016997;28;20558;-82
2023/12/23 05:13:38;;;;;;;3.90;1.97;;;;;;;;;;5016196;28;20193;-83
2023/12/23 05:16:04;;;;;;;7.23;2.03;;;;;;;;;;5016104;28;20402;-81
2023/12/23 05:18:30;;;;;;;5.80;1.85;;;;;;;;;;5016753;28;20485;-82
2023/12/23 05:20:56;;;;;;;5.30;2.37;;;;;;;;;;5017558;28;20241;-83
2023/12/23 05:23:22;;;;;;;9.67;2.00;;;;;;;;;;5017202;28;20409;-82
2023/12/23 05:25:48;;;;;;;21.70;3.80;;;;;;;;;;5017064;28;20452;-82
2023/12/23 05:28:14;;;;;;;4.55;2.45;;;;;;;;;;5016605;28;20414;-82
2023/12/23 05:30:40;;;;;;;8.30;2.10;;;;;;;;;;5036188;28;20186;-83
2023/12/23 05:33:06;;;;;;;6.33;2.77;;;;;;;;;;5020996;28;20186;-83
2023/12/23 05:35:32;;;;;;;5.87;2.30;;;;;;;;;;5020783;28;20440;-82
2023/12/23 05:37:58;;;;;;;5.05;2.30;;;;;;;;;;5021177;28;20464;-82
2023/12/23 05:40:23;;;;;;;7.22;2.38;;;;;;;;;;5020648;28;20309;-82
2023/12/23 05:42:49;;;;;;;8.53;2.77;;;;;;;;;;5020438;28;20206;-83
2023/12/23 05:45:15;;;;;;;3.08;1.90;;;;;;;;;;5021482;28;20410;-83
2023/12/23 05:47:43;;;;;;;8.68;2.17;;;;;;;;;;5020675;28;20186;-86
2023/12/23 05:50:10;;;;;;;9.10;3.00;;;;;;;;;;5019939;28;20257;-83
2023/12/23 05:52:36;;;;;;;8.43;2.83;;;;;;;;;;5020429;28;20247;-83
2023/12/23 05:55:02;;;;;;;12.23;2.20;;;;;;;;;;5021816;28;20205;-82
2023/12/23 05:57:28;;;;;;;2.38;1.80;;;;;;;;;;5022105;28;20670;-82
2023/12/23 05:59:54;;;;;;;7.70;2.73;;;;;;;;;;5021077;28;20178;-82
2023/12/23 06:02:20;;;;;;;6.27;1.70;;;;;;;;;;5036296;28;20465;-82
2023/12/23 06:04:46;;;;;;;9.60;3.37;;;;;;;;;;5035207;28;20418;-83
2023/12/23 06:07:13;;;;;;;5.43;2.63;;;;;;;;;;5020369;28;20403;-81
2023/12/23 06:09:39;;;;;;;5.43;2.88;;;;;;;;;;5019963;28;20186;-82
2023/12/23 06:12:05;;;;;;;6.37;2.97;;;;;;;;;;5020955;28;20229;-83
2023/12/23 06:14:31;;;;;;;5.65;2.00;;;;;;;;;;5021094;28;20405;-82
2023/12/23 06:16:57;;;;;;;8.88;2.40;;;;;;;;;;5019692;28;20179;-82
2023/12/23 06:19:23;;;;;;;9.87;2.80;;;;;;;;;;5018924;28;20592;-82
2023/12/23 06:21:49;;;;;;;6.50;2.30;;;;;;;;;;5019873;28;20470;-83
2023/12/23 06:24:15;;;;;;;5.23;1.67;;;;;;;;;;5020393;28;20402;-82
2023/12/23 06:26:41;;;;;;;4.43;2.30;;;;;;;;;;5019675;28;20419;-83
2023/12/23 06:29:07;;;;;;;8.55;2.15;;;;;;;;;;5019715;28;20406;-83
2023/12/23 06:31:33;;;;;;;5.47;2.88;;;;;;;;;;5019489;28;20202;-83
2023/12/23 06:34:00;;;;;;;12.98;3.60;;;;;;;;;;5035077;28;20183;-82
2023/12/23 06:36:26;;;;;;;9.07;3.22;;;;;;;;;;5019342;28;20189;-82
2023/12/23 06:38:51;;;;;;;5.65;2.42;;;;;;;;;;5020263;28;20175;-84
2023/12/23 06:41:17;;;;;;;9.83;3.27;;;;;;;;;;5018820;28;20217;-83
2023/12/23 06:43:43;;;;;;;8.50;4.00;;;;;;;;;;5035565;28;20414;-82
2023/12/23 06:46:10;;;;;;;5.32;2.28;;;;;;;;;;5019166;28;20229;-83
2023/12/23 06:48:36;;;;;;;6.10;2.80;;;;;;;;;;5019578;28;20183;-83
2023/12/23 06:51:03;;;;;;;6.05;2.67;;;;;;;;;;5019783;28;20241;-83
2023/12/23 06:53:29;;;;;;;5.20;2.72;;;;;;;;;;5019788;28;20234;-81
2023/12/23 06:55:55;;;;;;;3.47;2.45;;;;;;;;;;5018588;28;20185;-82
2023/12/23 06:58:23;;;;;;;5.83;2.03;;;;;;;;;;5018847;28;20253;-82
2023/12/23 07:00:49;;;;;;;3.15;2.25;;;;;;;;;;5018834;28;20458;-82
2023/12/23 07:03:16;;;;;;;5.93;2.72;;;;;;;;;;5018974;28;20294;-82
2023/12/23 07:05:42;;;;;;;8.83;2.40;;;;;;;;;;5018682;28;20254;-82
2023/12/23 07:08:08;;;;;;;4.32;2.35;;;;;;;;;;5018866;28;20412;-82
2023/12/23 07:10:34;;;;;;;3.13;1.70;;;;;;;;;;5019124;28;20631;-83
2023/12/23 07:13:00;;;;;;;4.00;1.80;;;;;;;;;;5018645;28;20455;-83
2023/12/23 07:15:26;;;;;;;5.87;1.93;;;;;;;;;;5020087;28;20398;-82
2023/12/23 07:17:52;;;;;;;7.67;2.20;;;;;;;;;;5020558;28;20500;-83
2023/12/23 07:20:18;;;;;;;3.90;2.10;;;;;;;;;;5019675;28;20414;-82
2023/12/23 07:22:43;;;;;;;10.93;3.60;;;;;;;;;;5019187;28;20850;-82
2023/12/23 07:25:09;;;;;;;10.23;2.83;;;;;;;;;;5019059;28;20410;-82
2023/12/23 07:27:35;;;;;;;4.37;2.30;;;;;;;;;;5018459;28;20414;-83
2023/12/23 07:30:03;;;;;;;5.90;3.50;;;;;;;;;;5019297;28;20458;-82
2023/12/23 07:32:29;;;;;;;4.70;2.42;;;;;;;;;;5018481;28;20408;-81
2023/12/23 07:34:55;;;;;;;5.47;2.40;;;;;;;;;;5018916;28;20639;-84
2023/12/23 07:37:20;;;;;;;8.35;3.28;;;;;;;;;;5020913;28;20496;-83
2023/12/23 07:39:46;;;;;;;4.17;2.43;;;;;;;;;;5020195;28;20228;-83
2023/12/23 07:42:12;;;;;;;9.97;3.27;;;;;;;;;;5018680;28;20479;-83
2023/12/23 07:44:38;;;;;;;7.47;3.40;;;;;;;;;;5021195;28;20421;-83
2023/12/23 07:47:05;;;;;;;5.43;2.55;;;;;;;;;;5020802;28;20178;-85
2023/12/23 07:49:31;;;;;;;7.35;3.58;;;;;;;;;;5020672;28;20229;-83
2023/12/23 07:51:58;;;;;;;4.32;3.92;;;;;;;;;;5025797;28;20202;-83
2023/12/23 07:54:24;;;;;;;9.63;3.53;;;;;;;;;;5021022;28;20183;-83
2023/12/23 07:56:50;;;;;;;4.67;3.37;;;;;;;;;;5019235;28;20577;-83
2023/12/23 07:59:16;;;;;;;11.03;3.53;;;;;;;;;;5019142;28;20409;-82
2023/12/23 08:01:45;;;;;;;7.27;3.43;;;;;;;;;;5034697;28;20493;-84
2023/12/23 08:04:12;;;;;;;7.53;4.40;;;;;;;;;;5019729;28;20441;-83
2023/12/23 08:06:38;;;;;;;6.68;4.13;;;;;;;;;;5019735;28;20190;-82
2023/12/23 08:09:04;;;;;;;11.20;4.20;;;;;;;;;;5017996;28;20574;-82
2023/12/23 08:11:31;;;;;;;11.47;5.43;;;;;;;;;;5032818;28;20488;-83
2023/12/23 08:13:56;;;;;;;6.75;3.35;;;;;;;;;;5019399;28;20428;-83
2023/12/23 08:16:23;;;;;;;10.90;3.90;;;;;;;;;;5019287;28;20202;-83
2023/12/23 08:18:48;;;;;;;8.05;4.05;;;;;;;;;;5018841;28;20416;-83
2023/12/23 08:21:15;;;;;;;10.17;5.13;;;;;;;;;;5018397;28;20207;-83
2023/12/23 08:23:41;;;;;;;11.18;4.07;;;;;;;;;;5034105;28;20488;-82
2023/12/23 08:26:08;;;;;;;20.90;7.05;;;;;;;;;;5018389;28;20186;-82
2023/12/23 08:28:34;;;;;;;18.77;4.82;;;;;;;;;;5035654;28;20240;-84
2023/12/23 08:31:02;;;;;;;9.90;5.83;;;;;;;;;;5020457;28;20182;-84
2023/12/23 08:33:28;;;;;;;12.90;5.20;;;;;;;;;;5034455;28;20433;-83
2023/12/23 08:35:55;;;;;;;8.82;5.30;;;;;;;;;;5019546;28;20229;-83
2023/12/23 08:38:21;;;;;;;10.73;4.18;;;;;;;;;;5018504;28;20310;-83
2023/12/23 08:40:47;;;;;;;14.65;4.93;;;;;;;;;;5034939;28;20217;-83
2023/12/23 08:43:13;;;;;;;9.07;5.30;;;;;;;;;;5019005;28;20182;-81
2023/12/23 08:45:39;;;;;;;16.92;3.70;;;;;;;;;;5017522;28;20282;-82
2023/12/23 08:48:05;;;;;;;15.47;4.07;;;;;;;;;;5017121;28;20604;-82
2023/12/23 08:50:31;;;;;;;11.00;4.82;;;;;;;;;;5017059;28;20489;-82
2023/12/23 08:52:57;;;;;;;8.50;3.80;;;;;;;;;;5016902;28;20190;-83
2023/12/23 08:55:24;;;;;;;7.10;3.60;;;;;;;;;;5019469;28;20494;-83
2023/12/23 08:57:50;;;;;;;7.75;3.80;;;;;;;;;;5020267;28;20502;-84
2023/12/23 09:00:16;;;;;;;9.45;3.45;;;;;;;;;;5019372;28;20170;-84
2023/12/23 09:02:42;;;;;;;9.13;3.30;;;;;;;;;;5031789;28;20301;-82
2023/12/23 09:05:08;;;;;;;7.60;3.20;;;;;;;;;;5035006;28;20273;-81
2023/12/23 09:07:34;;;;;;;9.63;3.55;;;;;;;;;;5023516;28;20266;-84
2023/12/23 09:10:00;;;;;;;6.40;2.30;;;;;;;;;;5023765;28;20595;-84
2023/12/23 09:12:26;;;;;;;10.37;3.17;;;;;;;;;;5022990;28;20418;-84
2023/12/23 09:14:52;;;;;;;12.48;3.80;;;;;;;;;;5022701;28;20475;-84
2023/12/23 09:17:18;;;;;;;10.10;2.80;;;;;;;;;;5022766;28;20182;-83
2023/12/23 09:19:44;;;;;;;4.38;2.05;;;;;;;;;;5022425;28;20472;-83
2023/12/23 09:22:10;;;;;;;7.40;2.87;;;;;;;;;;5021247;28;20213;-82
2023/12/23 09:24:37;;;;;;;6.32;2.28;;;;;;;;;;5020075;28;20425;-83
2023/12/23 09:27:03;;;;;;;5.38;2.00;;;;;;;;;;5019093;28;20175;-83
2023/12/23 09:29:29;;;;;;;11.50;2.20;;;;;;;;;;5020219;28;20210;-82
2023/12/23 09:31:56;;;;;;;7.45;2.10;;;;;;;;;;5020678;28;20635;-84
2023/12/23 09:34:22;;;;;;;10.13;2.47;;;;;;;;;;5035595;28;20545;-83
2023/12/23 09:36:48;;;;;;;8.23;2.60;;;;;;;;;;5020051;28;20536;-81
2023/12/23 09:39:14;;;;;;;5.00;2.28;;;;;;;;;;5019455;28;20634;-82
2023/12/23 09:41:43;;;;;;;10.10;3.07;;;;;;;;;;5018339;28;20213;-81
2023/12/23 09:44:09;;;;;;;7.40;2.55;;;;;;;;;;5020019;28;20471;-81
2023/12/23 09:46:38;;;;;;;4.18;2.17;;;;;;;;;;5019750;28;20261;-81
2023/12/23 09:49:04;;;;;;;8.23;2.55;;;;;;;;;;5018583;28;20301;-82
2023/12/23 09:51:31;;;;;;;6.20;2.35;;;;;;;;;;5036100;28;20188;-83
2023/12/23 09:53:58;;;;;;;8.85;3.55;;;;;;;;;;5019442;28;20175;-82
2023/12/23 09:56:25;;;;;;;7.60;2.17;;;;;;;;;;5019743;28;20167;-80
2023/12/23 09:58:51;;;;;;;3.08;2.33;;;;;;;;;;5020247;28;20171;-82
2023/12/23 10:01:17;;;;;;;7.80;2.00;;;;;;;;;;5018452;28;20217;-81
2023/12/23 10:03:43;;;;;;;6.20;3.13;;;;;;;;;;5019442;28;20689;-80
2023/12/23 10:06:13;;;;;;;4.77;3.40;;;;;;;;;;5018708;28;20405;-80
2023/12/23 10:08:39;;;;;;;10.40;2.60;;;;;;;;;;5019342;28;20416;-81
2023/12/23 10:11:05;;;;;;;9.65;2.70;;;;;;;;;;5020071;28;20174;-82
2023/12/23 10:13:31;;;;;;;2.53;2.03;;;;;;;;;;5019653;28;20317;-83
2023/12/23 10:15:57;;;;;;;6.65;2.63;;;;;;;;;;5020879;28;20186;-87
2023/12/23 10:18:24;;;;;;;5.33;3.10;;;;;;;;;;5019961;28;20590;-81
2023/12/23 10:20:51;;;;;;;10.43;2.80;;;;;;;;;;5019863;28;20468;-82
2023/12/23 10:23:17;;;;;;;8.90;3.10;;;;;;;;;;5019308;28;20186;-82
2023/12/23 10:25:42;;;;;;;11.73;3.47;;;;;;;;;;5018825;28;20186;-81
2023/12/23 10:28:09;;;;;;;4.20;2.10;;;;;;;;;;5018851;28;20410;-81
2023/12/23 10:30:40;;;;;;;10.00;2.90;;;;;;;;;;5033389;28;20413;-81
2023/12/23 10:33:06;;;;;;;5.60;2.90;;;;;;;;;;5033386;28;20178;-81
2023/12/23 10:35:38;;;;;;;6.47;1.85;;;;;;;;;;5018891;28;20179;-82
2023/12/23 10:38:07;;;;;;;5.00;2.92;;;;;;;;;;5021444;28;20173;-82
2023/12/23 10:40:33;;;;;;;3.50;2.00;;;;;;;;;;5020759;28;20186;-82
2023/12/23 10:43:01;;;;;;;5.40;2.07;;;;;;;;;;5018515;28;20183;-81
2023/12/23 10:45:27;;;;;;;5.60;3.15;;;;;;;;;;5018747;28;20483;-83
2023/12/23 10:47:53;;;;;;;10.10;2.45;;;;;;;;;;5018175;28;20274;-83
2023/12/23 10:50:19;;;;;;;2.63;2.13;;;;;;;;;;5018334;28;20227;-81
2023/12/23 10:52:46;;;;;;;4.50;1.75;;;;;;;;;;5033794;28;20688;-82
2023/12/23 10:55:12;;;;;;;5.20;2.63;;;;;;;;;;5033432;28;20179;-81
2023/12/23 10:57:40;;;;;;;3.65;2.00;;;;;;;;;;5018402;28;20240;-82
2023/12/23 11:00:07;;;;;;;6.45;3.35;;;;;;;;;;5018185;28;20172;-82
2023/12/23 11:02:35;;;;;;;6.85;2.38;;;;;;;;;;5018933;28;20198;-81
2023/12/23 11:05:03;;;;;;;4.15;2.47;;;;;;;;;;5033522;28;20190;-84
2023/12/23 11:07:30;;;;;;;9.25;1.90;;;;;;;;;;5018162;28;20526;-81
2023/12/23 11:10:01;;;;;;;6.60;3.00;;;;;;;;;;5018528;28;20537;-81
2023/12/23 11:12:27;;;;;;;5.72;3.33;;;;;;;;;;5018745;28;20198;-82
2023/12/23 11:14:53;;;;;;;5.22;2.05;;;;;;;;;;5018524;28;20183;-81
2023/12/23 11:17:26;;;;;;;8.48;2.40;;;;;;;;;;5018335;28;20530;-81
2023/12/23 11:19:55;;;;;;;7.53;2.47;;;;;;;;;;5017702;28;20238;-81
2023/12/23 11:22:22;;;;;;;6.57;2.40;;;;;;;;;;5033697;28;20260;-81
2023/12/23 11:24:48;;;;;;;7.38;2.30;;;;;;;;;;5018520;28;20189;-81
2023/12/23 11:27:29;;;;;;;5.80;1.83;;;;;;;;;;5018613;28;20226;-82
2023/12/23 11:29:55;;;;;;;6.43;2.33;;;;;;;;;;5019721;28;20417;-82
2023/12/23 11:32:25;;;;;;;13.23;2.33;;;;;;;;;;5019157;28;20187;-81
2023/12/23 11:34:52;;;;;;;3.38;1.80;;;;;;;;;;5018815;28;20406;-81
2023/12/23 11:37:18;;;;;;;7.97;2.08;;;;;;;;;;5021108;28;20177;-81
2023/12/23 11:39:44;;;;;;;4.43;2.38;;;;;;;;;;5018780;28;20302;-84
2023/12/23 11:42:13;;;;;;;4.65;1.90;;;;;;;;;;5021503;28;20214;-83
2023/12/23 11:44:39;;;;;;;5.75;1.95;;;;;;;;;;5020374;28;20199;-83
2023/12/23 11:47:05;;;;;;;9.27;2.72;;;;;;;;;;5034981;28;20187;-82
2023/12/23 11:49:32;;;;;;;5.38;2.10;;;;;;;;;;5018552;28;20321;-81
2023/12/23 11:51:58;;;;;;;4.00;1.30;;;;;;;;;;5019345;28;20655;-82
2023/12/23 11:54:24;;;;;;;7.75;2.42;;;;;;;;;;5018004;28;20186;-81
2023/12/23 11:56:50;;;;;;;3.58;2.20;;;;;;;;;;5019991;28;20171;-82
2023/12/23 11:59:16;;;;;;;4.47;2.08;;;;;;;;;;5020612;28;20178;-81
2023/12/23 12:01:42;;;;;;;8.70;2.28;;;;;;;;;;5036856;28;20215;-83
2023/12/23 12:04:09;;;;;;;3.75;1.70;;;;;;;;;;5019287;28;20203;-82
2023/12/23 12:06:35;;;;;;;3.28;2.08;;;;;;;;;;5017583;28;20209;-82
2023/12/23 12:09:01;;;;;;;2.13;1.30;;;;;;;;;;5020128;28;20167;-82
2023/12/23 12:11:28;;;;;;;4.70;1.90;;;;;;;;;;5020090;28;20262;-82
2023/12/23 12:13:58;;;;;;;3.08;1.67;;;;;;;;;;5018840;28;20830;-81
2023/12/23 12:16:24;;;;;;;5.90;1.75;;;;;;;;;;5018265;28;20780;-82
2023/12/23 12:18:50;;;;;;;8.80;2.20;;;;;;;;;;5020615;28;20210;-80
2023/12/23 12:21:16;;;;;;;6.78;1.38;;;;;;;;;;5020536;28;20492;-81
2023/12/23 12:23:43;;;;;;;3.15;1.17;;;;;;;;;;5034003;28;20661;-81
2023/12/23 12:26:15;;;;;;;5.50;1.52;;;;;;;;;;5018086;28;20257;-83
2023/12/23 12:28:41;;;;;;;5.63;3.20;;;;;;;;;;5018844;28;20190;-83
2023/12/23 12:31:08;;;;;;;3.78;1.60;;;;;;;;;;5018385;28;20547;-82
2023/12/23 12:33:35;;;;;;;5.00;1.30;;;;;;;;;;5017908;28;20673;-84
2023/12/23 12:36:01;;;;;;;5.85;1.45;;;;;;;;;;5031846;28;20178;-82
2023/12/23 12:38:27;;;;;;;4.50;1.40;;;;;;;;;;5015694;28;20187;-82
2023/12/23 12:40:54;;;;;;;3.70;1.50;;;;;;;;;;5016298;28;20222;-81
2023/12/23 12:43:23;;;;;;;5.25;1.35;;;;;;;;;;5015948;28;20406;-81
2023/12/23 12:45:49;;;;;;;3.15;1.20;;;;;;;;;;5016120;28;20267;-80
2023/12/23 12:48:15;;;;;;;4.40;1.53;;;;;;;;;;5015977;28;20240;-82
2023/12/23 12:50:45;;;;;;;8.90;2.47;;;;;;;;;;5015715;28;20504;-81
2023/12/23 12:53:11;;;;;;;4.47;1.40;;;;;;;;;;5016261;28;20233;-81
2023/12/23 12:55:37;;;;;;;4.13;1.65;;;;;;;;;;5015995;28;20179;-80
2023/12/23 12:58:03;;;;;;;6.67;1.40;;;;;;;;;;5016292;28;20175;-81
2023/12/23 13:00:29;;;;;;;3.65;1.40;;;;;;;;;;5016322;28;20413;-81
2023/12/23 13:02:55;;;;;;;2.92;1.30;;;;;;;;;;5016467;28;20191;-82
2023/12/23 13:05:21;;;;;;;4.05;1.70;;;;;;;;;;5031179;28;20187;-82
2023/12/23 13:07:49;;;;;;;7.27;1.70;;;;;;;;;;5032585;28;20187;-82
2023/12/23 13:10:15;;;;;;;3.33;1.10;;;;;;;;;;5015775;28;20410;-83
2023/12/23 13:12:42;;;;;;;3.07;1.37;;;;;;;;;;5031206;28;20341;-81
2023/12/23 13:15:08;;;;;;;4.15;1.75;;;;;;;;;;5016049;28;20497;-82
2023/12/23 13:17:34;;;;;;;2.05;1.00;;;;;;;;;;5031051;28;20191;-82
2023/12/23 13:20:00;;;;;;;2.23;1.40;;;;;;;;;;5031057;28;20677;-82
2023/12/23 13:22:26;;;;;;;4.70;1.33;;;;;;;;;;5013892;28;20476;-82
2023/12/23 13:24:51;;;;;;;3.80;1.33;;;;;;;;;;5014942;28;20174;-82
2023/12/23 13:27:18;;;;;;;9.87;2.40;;;;;;;;;;5014139;28;20505;-81
2023/12/23 13:29:44;;;;;;;3.47;1.63;;;;;;;;;;5015678;28;20783;-81
2023/12/23 13:32:10;;;;;;;5.30;1.48;;;;;;;;;;5015592;28;20209;-83
2023/12/23 13:34:36;;;;;;;5.73;1.30;;;;;;;;;;5016151;28;20210;-81
2023/12/23 13:37:02;;;;;;;4.37;1.30;;;;;;;;;;5015504;28;20459;-81
2023/12/23 13:39:28;;;;;;;7.43;1.67;;;;;;;;;;5015052;28;20406;-81
2023/12/23 13:41:54;;;;;;;4.20;1.33;;;;;;;;;;5015300;28;20465;-80
2023/12/23 13:44:20;;;;;;;4.13;2.43;;;;;;;;;;5015252;28;20773;-81
2023/12/23 13:46:48;;;;;;;4.53;1.37;;;;;;;;;;5015068;28;20410;-81
2023/12/23 13:49:14;;;;;;;4.40;1.17;;;;;;;;;;5015451;28;20481;-81
2023/12/23 13:51:40;;;;;;;1.30;0.98;;;;;;;;;;5019271;28;20179;-81
2023/12/23 13:54:06;;;;;;;4.45;1.52;;;;;;;;;;5018686;28;20178;-81
2023/12/23 13:56:32;;;;;;;4.20;1.30;;;;;;;;;;5018807;28;20183;-81
2023/12/23 13:58:58;;;;;;;6.23;1.20;;;;;;;;;;5018254;28;20421;-81
2023/12/23 14:01:24;;;;;;;3.45;1.70;;;;;;;;;;5018756;28;20469;-81
2023/12/23 14:03:50;;;;;;;7.67;1.60;;;;;;;;;;5018809;28;20341;-80
2023/12/23 14:06:16;;;;;;;3.00;1.20;;;;;;;;;;5018841;28;20397;-81
2023/12/23 14:08:42;;;;;;;4.27;1.30;;;;;;;;;;5018684;28;20406;-81
2023/12/23 14:11:08;;;;;;;5.80;1.58;;;;;;;;;;5034494;28;20880;-81
2023/12/23 14:13:34;;;;;;;5.35;1.45;;;;;;;;;;5018678;28;20583;-81
2023/12/23 14:16:00;;;;;;;5.87;1.63;;;;;;;;;;5019430;28;20179;-81
2023/12/23 14:18:26;;;;;;;4.20;1.70;;;;;;;;;;5018915;28;20444;-81
2023/12/23 14:20:52;;;;;;;3.72;1.42;;;;;;;;;;5018613;28;20480;-81
2023/12/23 14:23:18;;;;;;;1.93;1.27;;;;;;;;;;5018735;28;20193;-81
2023/12/23 14:25:44;;;;;;;2.90;1.47;;;;;;;;;;5018557;28;20418;-80
2023/12/23 14:28:10;;;;;;;6.03;1.57;;;;;;;;;;5019205;28;20445;-80
2023/12/23 14:30:36;;;;;;;5.63;1.30;;;;;;;;;;5018127;28;20406;-81
2023/12/23 14:33:03;;;;;;;4.35;1.75;;;;;;;;;;5017255;28;20402;-81
2023/12/23 14:35:29;;;;;;;7.60;1.70;;;;;;;;;;5033478;28;20179;-80